createdAt,value
2023-05-24T00:01:48.504Z,101984.81
2023-05-24T00:04:15.172Z,101984.34
2023-05-24T00:06:42.589Z,101986.66
2023-05-24T00:09:09.077Z,101980.28
2023-05-24T00:11:35.628Z,101987.00
2023-05-24T00:14:02.132Z,101985.31
2023-05-24T00:16:28.701Z,101982.13
2023-05-24T00:18:55.170Z,101970.91
2023-05-24T00:21:21.659Z,101972.75
2023-05-24T00:23:48.283Z,101965.06
2023-05-24T00:26:14.744Z,101961.91
2023-05-24T00:28:41.300Z,101962.69
2023-05-24T00:31:08.470Z,101964.28
2023-05-24T00:33:35.016Z,101964.66
2023-05-24T00:36:01.575Z,101959.84
2023-05-24T00:38:28.357Z,101959.75
2023-05-24T00:40:59.756Z,101958.53
2023-05-24T00:43:26.534Z,101964.81
2023-05-24T00:46:26.921Z,101968.63
2023-05-24T00:48:53.967Z,101968.19
2023-05-24T00:51:20.912Z,101961.72
2023-05-24T00:53:49.015Z,101959.63
2023-05-24T00:56:16.781Z,101959.13
2023-05-24T00:58:43.772Z,101966.19
2023-05-24T01:01:10.758Z,101962.97
2023-05-24T01:03:37.841Z,101955.72
2023-05-24T01:06:07.246Z,101959.50
2023-05-24T01:08:42.776Z,101956.75
2023-05-24T01:11:41.997Z,101953.16
2023-05-24T01:14:38.276Z,101958.97
2023-05-24T01:17:26.597Z,101956.59
2023-05-24T01:19:59.942Z,101953.72
2023-05-24T01:23:01.803Z,101960.34
2023-05-24T01:25:41.683Z,101958.28
2023-05-24T01:28:10.696Z,101957.50
2023-05-24T01:30:38.217Z,101958.59
2023-05-24T01:33:05.116Z,101950.22
2023-05-24T01:35:31.619Z,101939.72
2023-05-24T01:37:58.063Z,101943.88
2023-05-24T01:40:24.612Z,101936.31
2023-05-24T01:43:03.204Z,101936.03
2023-05-24T01:45:40.031Z,101929.53
2023-05-24T01:48:19.130Z,101919.91
2023-05-24T01:50:48.589Z,101928.31
2023-05-24T01:53:19.614Z,101931.06
2023-05-24T01:55:49.008Z,101927.44
2023-05-24T01:58:16.612Z,101927.03
2023-05-24T02:00:45.203Z,101921.91
2023-05-24T02:03:15.041Z,101921.72
2023-05-24T02:05:41.784Z,101932.78
2023-05-24T02:08:08.920Z,101928.06
2023-05-24T02:10:38.356Z,101931.53
2023-05-24T02:13:06.094Z,101939.31
2023-05-24T02:15:32.949Z,101940.84
2023-05-24T02:18:01.515Z,101937.63
2023-05-24T02:20:32.050Z,101939.88
2023-05-24T02:22:58.678Z,101937.81
2023-05-24T02:25:25.575Z,101935.34
2023-05-24T02:27:52.173Z,101936.78
2023-05-24T02:30:18.940Z,101935.25
2023-05-24T02:32:46.518Z,101924.50
2023-05-24T02:35:13.240Z,101931.63
2023-05-24T02:37:39.835Z,101928.41
2023-05-24T02:40:07.094Z,101932.63
2023-05-24T02:42:33.592Z,101933.31
2023-05-24T02:45:00.305Z,101931.97
2023-05-24T02:47:27.136Z,101927.88
2023-05-24T02:49:54.407Z,101936.78
2023-05-24T02:52:22.838Z,101933.31
2023-05-24T02:54:50.400Z,101944.06
2023-05-24T02:57:16.978Z,101936.34
2023-05-24T02:59:43.785Z,101931.16
2023-05-24T03:02:13.624Z,101934.81
2023-05-24T03:04:40.289Z,101936.63
2023-05-24T03:07:06.786Z,101930.38
2023-05-24T03:09:33.501Z,101930.53
2023-05-24T03:11:59.986Z,101944.03
2023-05-24T03:14:26.478Z,101934.31
2023-05-24T03:16:52.951Z,101933.63
2023-05-24T03:19:19.443Z,101925.56
2023-05-24T03:21:46.025Z,101922.22
2023-05-24T03:24:13.236Z,101912.53
2023-05-24T03:26:40.826Z,101917.34
2023-05-24T03:29:07.425Z,101915.47
2023-05-24T03:31:34.077Z,101914.59
2023-05-24T03:34:00.671Z,101914.59
2023-05-24T03:36:28.950Z,101928.13
2023-05-24T03:38:58.128Z,101927.16
2023-05-24T03:41:25.103Z,101934.03
2023-05-24T03:43:52.318Z,101930.44
2023-05-24T03:46:19.150Z,101937.84
2023-05-24T03:48:45.784Z,101943.00
2023-05-24T03:51:12.329Z,101940.69
2023-05-24T03:53:39.042Z,101944.16
2023-05-24T03:56:05.955Z,101947.00
2023-05-24T03:58:32.518Z,101952.63
2023-05-24T04:00:59.049Z,101940.63
2023-05-24T04:03:26.176Z,101947.47
2023-05-24T04:05:53.927Z,101945.97
2023-05-24T04:08:20.646Z,101946.13
2023-05-24T04:10:47.212Z,101947.03
2023-05-24T04:13:13.884Z,101949.88
2023-05-24T04:15:40.658Z,101945.59
2023-05-24T04:18:07.420Z,101950.13
2023-05-24T04:20:34.100Z,101950.59
2023-05-24T04:23:00.670Z,101953.06
2023-05-24T04:25:27.601Z,101951.56
2023-05-24T04:27:54.343Z,101950.50
2023-05-24T04:30:21.419Z,101948.66
2023-05-24T04:32:48.692Z,101945.59
2023-05-24T04:35:16.810Z,101955.31
2023-05-24T04:37:44.469Z,101967.44
2023-05-24T04:40:11.663Z,101963.66
2023-05-24T04:42:38.435Z,101965.06
2023-05-24T04:45:05.600Z,101972.47
2023-05-24T04:47:32.223Z,101961.16
2023-05-24T04:49:58.834Z,101972.25
2023-05-24T04:52:25.391Z,101970.16
2023-05-24T04:54:51.976Z,101966.56
2023-05-24T04:57:18.481Z,101970.69
2023-05-24T04:59:45.041Z,101974.19
2023-05-24T05:02:11.678Z,101971.41
2023-05-24T05:04:38.378Z,101976.94
2023-05-24T05:07:05.120Z,101971.94
2023-05-24T05:09:31.674Z,101970.22
2023-05-24T05:11:58.527Z,101969.97
2023-05-24T05:14:25.130Z,101966.69
2023-05-24T05:16:51.707Z,101968.88
2023-05-24T05:19:18.281Z,101981.28
2023-05-24T05:21:44.783Z,101987.66
2023-05-24T05:24:11.467Z,101998.28
2023-05-24T05:26:38.065Z,102003.78
2023-05-24T05:29:04.576Z,101991.41
2023-05-24T05:31:31.257Z,101988.44
2023-05-24T05:33:57.849Z,101989.69
2023-05-24T05:36:24.469Z,101987.06
2023-05-24T05:38:51.055Z,101984.25
2023-05-24T05:41:17.828Z,101979.94
2023-05-24T05:43:44.469Z,101985.47
2023-05-24T05:46:11.432Z,101988.50
2023-05-24T05:48:38.036Z,101994.31
2023-05-24T05:51:04.557Z,101994.84
2023-05-24T05:53:33.975Z,101995.97
2023-05-24T05:56:00.504Z,102000.25
2023-05-24T05:58:27.029Z,101993.84
2023-05-24T06:00:53.598Z,101980.88
2023-05-24T06:03:20.365Z,101992.94
2023-05-24T06:05:47.111Z,101989.72
2023-05-24T06:08:13.640Z,102000.88
2023-05-24T06:10:40.331Z,101999.41
2023-05-24T06:13:07.632Z,101985.38
2023-05-24T06:15:34.503Z,101998.94
2023-05-24T06:18:02.319Z,101988.09
2023-05-24T06:20:29.223Z,102000.53
2023-05-24T06:22:57.194Z,101996.28
2023-05-24T06:25:24.475Z,101999.38
2023-05-24T06:27:54.099Z,101999.56
2023-05-24T06:30:20.653Z,102011.13
2023-05-24T06:32:47.317Z,102003.78
2023-05-24T06:35:14.178Z,101990.56
2023-05-24T06:37:40.823Z,101996.88
2023-05-24T06:40:09.571Z,101997.84
2023-05-24T06:42:37.113Z,101994.06
2023-05-24T06:45:04.067Z,102000.63
2023-05-24T06:47:30.807Z,101992.81
2023-05-24T06:49:57.613Z,102003.31
2023-05-24T06:52:24.185Z,102003.84
2023-05-24T06:54:50.769Z,101999.69
2023-05-24T06:57:17.327Z,102002.09
2023-05-24T06:59:43.892Z,102003.41
2023-05-24T07:02:10.666Z,101998.78
2023-05-24T07:04:37.259Z,101991.81
2023-05-24T07:07:04.062Z,102001.78
2023-05-24T07:09:30.652Z,101993.56
2023-05-24T07:11:57.170Z,101995.63
2023-05-24T07:14:25.878Z,101982.16
2023-05-24T07:16:52.844Z,102000.47
2023-05-24T07:19:21.428Z,101986.19
2023-05-24T07:21:48.147Z,101991.34
2023-05-24T07:24:16.201Z,101994.63
2023-05-24T07:26:43.220Z,101995.88
2023-05-24T07:29:09.805Z,101995.06
2023-05-24T07:31:36.896Z,102002.25
2023-05-24T07:34:03.505Z,101991.91
2023-05-24T07:36:34.789Z,101992.31
2023-05-24T07:39:02.247Z,102007.91
2023-05-24T07:41:29.345Z,102003.56
2023-05-24T07:43:56.113Z,101996.31
2023-05-24T07:46:23.002Z,101999.97
2023-05-24T07:48:49.785Z,101996.44
2023-05-24T07:51:16.296Z,101986.94
2023-05-24T07:53:42.914Z,101996.91
2023-05-24T07:56:09.893Z,101998.88
2023-05-24T07:58:36.448Z,101989.34
2023-05-24T08:01:03.215Z,101999.72
2023-05-24T08:03:29.938Z,101991.75
2023-05-24T08:05:57.105Z,101993.38
2023-05-24T08:08:24.415Z,101999.72
2023-05-24T08:10:50.945Z,101994.16
2023-05-24T08:13:17.520Z,101998.97
2023-05-24T08:15:44.285Z,101992.19
2023-05-24T08:18:11.069Z,101992.59
2023-05-24T08:20:38.786Z,101998.16
2023-05-24T08:23:05.585Z,101993.78
2023-05-24T08:25:32.962Z,101990.56
2023-05-24T08:27:59.527Z,101985.78
2023-05-24T08:30:26.060Z,101987.78
2023-05-24T08:32:53.248Z,101989.75
2023-05-24T08:35:21.529Z,101998.91
2023-05-24T08:37:49.189Z,101998.13
2023-05-24T08:40:16.333Z,101997.34
2023-05-24T08:42:43.146Z,101993.38
2023-05-24T08:45:12.461Z,101993.00
2023-05-24T08:47:39.683Z,101989.41
2023-05-24T08:50:07.395Z,101987.78
2023-05-24T08:52:34.862Z,101988.63
2023-05-24T08:55:02.964Z,101983.84
2023-05-24T08:57:32.520Z,101987.41
2023-05-24T08:59:59.273Z,101986.63
2023-05-24T09:02:26.876Z,101990.19
2023-05-24T09:04:53.913Z,101987.00
2023-05-24T09:07:24.719Z,101994.56
2023-05-24T09:10:11.641Z,101984.22
2023-05-24T09:12:39.776Z,101979.81
2023-05-24T09:15:08.210Z,101983.75
2023-05-24T09:17:37.021Z,101979.75
2023-05-24T09:20:07.101Z,101977.69
2023-05-24T09:22:36.222Z,101983.25
2023-05-24T09:25:06.051Z,101986.00
2023-05-24T09:27:37.724Z,101984.78
2023-05-24T09:30:09.250Z,101982.78
2023-05-24T09:32:35.874Z,101983.16
2023-05-24T09:35:02.678Z,101978.31
2023-05-24T09:37:32.737Z,101982.69
2023-05-24T09:40:00.271Z,101975.84
2023-05-24T09:42:28.743Z,101981.72
2023-05-24T09:45:08.570Z,101971.38
2023-05-24T09:47:40.366Z,101965.75
2023-05-24T09:50:13.280Z,101973.75
2023-05-24T09:52:41.149Z,101979.75
2023-05-24T09:55:18.523Z,101964.19
2023-05-24T09:57:49.868Z,101980.19
2023-05-24T10:00:23.220Z,101978.69
2023-05-24T10:03:09.197Z,101971.91
2023-05-24T10:05:36.476Z,101975.56
2023-05-24T10:08:06.845Z,101972.41
2023-05-24T10:10:34.000Z,101969.28
2023-05-24T10:13:01.741Z,101968.09
2023-05-24T10:15:29.652Z,101972.13
2023-05-24T10:17:57.577Z,101976.53
2023-05-24T10:20:24.849Z,101983.72
2023-05-24T10:22:59.255Z,101980.59
2023-05-24T10:25:28.511Z,101984.94
2023-05-24T10:28:01.571Z,101985.31
2023-05-24T10:30:34.247Z,101982.06
2023-05-24T10:33:02.720Z,101976.84
2023-05-24T10:35:30.856Z,101981.97
2023-05-24T10:37:57.541Z,101977.94
2023-05-24T10:40:26.890Z,101986.75
2023-05-24T10:42:56.604Z,101988.28
2023-05-24T10:45:23.055Z,101992.66
2023-05-24T10:47:49.668Z,101991.44
2023-05-24T10:50:20.755Z,101982.69
2023-05-24T10:52:49.569Z,101970.34
2023-05-24T10:55:19.161Z,101975.13
2023-05-24T10:57:45.798Z,101970.28
2023-05-24T11:03:02.298Z,101976.97
2023-05-24T11:05:36.697Z,101982.13
2023-05-24T11:08:06.704Z,101974.09
2023-05-24T11:10:33.414Z,101976.84
2023-05-24T11:13:02.065Z,101968.50
2023-05-24T11:15:29.788Z,101974.06
2023-05-24T11:18:14.789Z,101983.13
2023-05-24T11:20:48.063Z,101985.88
2023-05-24T11:23:16.169Z,101977.50
2023-05-24T11:25:43.228Z,101973.09
2023-05-24T11:28:11.206Z,101979.34
2023-05-24T11:30:42.368Z,101971.75
2023-05-24T11:33:20.003Z,101976.53
2023-05-24T11:35:47.284Z,101972.06
2023-05-24T11:38:17.378Z,101974.13
2023-05-24T11:40:45.523Z,101977.34
2023-05-24T11:43:17.055Z,101968.16
2023-05-24T11:45:50.062Z,101970.19
2023-05-24T11:48:18.816Z,101966.22
2023-05-24T11:50:52.384Z,101964.66
2023-05-24T11:53:23.200Z,101967.53
2023-05-24T11:55:49.853Z,101970.31
2023-05-24T11:58:32.349Z,101965.19
2023-05-24T12:00:59.088Z,101960.41
2023-05-24T12:03:26.088Z,101962.81
2023-05-24T12:05:57.008Z,101958.84
2023-05-24T12:08:23.646Z,101960.72
2023-05-24T12:10:51.722Z,101961.47
2023-05-24T12:13:23.384Z,101960.16
2023-05-24T12:15:54.985Z,101971.28
2023-05-24T12:18:24.182Z,101956.50
2023-05-24T12:20:51.597Z,101965.16
2023-05-24T12:23:24.131Z,101962.19
2023-05-24T12:25:50.932Z,101963.25
2023-05-24T12:28:21.853Z,101957.50
2023-05-24T12:30:49.904Z,101960.03
2023-05-24T12:33:19.153Z,101967.81
2023-05-24T12:35:47.244Z,101961.72
2023-05-24T12:38:13.763Z,101952.06
2023-05-24T12:40:44.016Z,101960.47
2023-05-24T12:43:14.806Z,101949.66
2023-05-24T12:45:41.376Z,101960.16
2023-05-24T12:48:08.815Z,101967.00
2023-05-24T12:50:35.642Z,101962.25
2023-05-24T12:53:02.214Z,101954.03
2023-05-24T12:55:29.183Z,101952.97
2023-05-24T12:57:56.417Z,101947.38
2023-05-24T13:00:27.289Z,101944.75
2023-05-24T13:02:56.761Z,101948.16
2023-05-24T13:05:24.279Z,101944.72
2023-05-24T13:07:52.259Z,101955.03
2023-05-24T13:10:22.219Z,101944.91
2023-05-24T13:12:49.033Z,101951.94
2023-05-24T13:15:15.565Z,101946.00
2023-05-24T13:17:42.702Z,101956.84
2023-05-24T13:20:11.273Z,101956.63
2023-05-24T13:22:39.685Z,101956.44
2023-05-24T13:25:07.737Z,101944.81
2023-05-24T13:27:34.990Z,101951.06
2023-05-24T13:30:02.060Z,101950.44
2023-05-24T13:32:28.790Z,101954.81
2023-05-24T13:34:55.390Z,101943.88
2023-05-24T13:37:22.209Z,101941.31
2023-05-24T13:39:49.573Z,101943.16
2023-05-24T13:42:16.268Z,101947.91
2023-05-24T13:44:43.253Z,101942.47
2023-05-24T13:47:09.994Z,101939.56
2023-05-24T13:49:37.835Z,101928.59
2023-05-24T13:52:04.620Z,101938.84
2023-05-24T13:54:32.165Z,101943.22
2023-05-24T13:56:59.534Z,101948.50
2023-05-24T13:59:27.124Z,101950.28
2023-05-24T14:01:54.068Z,101946.44
2023-05-24T14:04:20.739Z,101945.81
2023-05-24T14:06:47.229Z,101941.72
2023-05-24T14:09:15.235Z,101945.09
2023-05-24T14:11:42.049Z,101944.75
2023-05-24T14:16:38.040Z,101949.78
2023-05-24T14:19:04.736Z,101947.44
2023-05-24T14:21:32.361Z,101949.34
2023-05-24T14:23:58.943Z,101951.22
2023-05-24T14:26:25.558Z,101958.97
2023-05-24T14:28:55.323Z,101953.19
2023-05-24T14:31:22.219Z,101951.69
2023-05-24T14:33:49.093Z,101951.03
2023-05-24T14:36:15.829Z,101954.31
2023-05-24T14:38:42.367Z,101954.31
2023-05-24T14:41:10.021Z,101944.38
2023-05-24T14:43:37.665Z,101941.72
2023-05-24T14:46:04.481Z,101950.25
2023-05-24T14:48:31.072Z,101948.72
2023-05-24T14:50:57.595Z,101943.34
2023-05-24T14:53:24.377Z,101948.66
2023-05-24T14:55:50.918Z,101945.97
2023-05-24T14:58:17.681Z,101944.81
2023-05-24T15:00:45.121Z,101947.63
2023-05-24T15:03:14.449Z,101944.66
2023-05-24T15:05:42.793Z,101949.44
2023-05-24T15:08:11.214Z,101947.66
2023-05-24T15:10:39.237Z,101944.19
2023-05-24T15:13:05.836Z,101947.28
2023-05-24T15:15:32.385Z,101943.00
2023-05-24T15:18:00.171Z,101941.84
2023-05-24T15:20:27.103Z,101936.41
2023-05-24T15:22:53.871Z,101935.31
2023-05-24T15:25:20.904Z,101933.00
2023-05-24T15:27:47.617Z,101925.53
2023-05-24T15:30:14.377Z,101925.09
2023-05-24T15:32:41.227Z,101913.91
2023-05-24T15:35:08.210Z,101925.75
2023-05-24T15:37:34.718Z,101927.72
2023-05-24T15:40:01.278Z,101934.88
2023-05-24T15:42:30.477Z,101921.47
2023-05-24T15:44:57.025Z,101931.06
2023-05-24T15:47:27.877Z,101925.75
2023-05-24T15:49:54.570Z,101920.03
2023-05-24T15:52:21.126Z,101921.44
2023-05-24T15:54:47.739Z,101916.03
2023-05-24T15:57:14.230Z,101922.59
2023-05-24T15:59:40.810Z,101918.44
2023-05-24T16:02:08.324Z,101920.78
2023-05-24T16:04:35.077Z,101916.91
2023-05-24T16:07:01.641Z,101921.47
2023-05-24T16:09:28.231Z,101917.22
2023-05-24T16:11:54.761Z,101916.94
2023-05-24T16:14:21.486Z,101915.59
2023-05-24T16:16:48.066Z,101921.69
2023-05-24T16:19:14.714Z,101922.03
2023-05-24T16:21:41.396Z,101924.41
2023-05-24T16:24:09.174Z,101919.78
2023-05-24T16:26:35.969Z,101926.81
2023-05-24T16:29:02.614Z,101925.91
2023-05-24T16:33:58.850Z,101920.47
2023-05-24T16:36:26.846Z,101909.25
2023-05-24T16:38:53.598Z,101908.25
2023-05-24T16:41:20.235Z,101912.53
2023-05-24T16:43:46.806Z,101912.66
2023-05-24T16:46:13.413Z,101910.47
2023-05-24T16:48:40.179Z,101910.03
2023-05-24T16:51:06.754Z,101904.00
2023-05-24T16:53:33.351Z,101897.50
2023-05-24T16:55:59.902Z,101906.47
2023-05-24T16:58:30.909Z,101904.00
2023-05-24T17:00:58.538Z,101898.84
2023-05-24T17:03:28.911Z,101902.25
2023-05-24T17:05:58.878Z,101902.09
2023-05-24T17:08:27.854Z,101899.00
2023-05-24T17:10:58.667Z,101904.03
2023-05-24T17:13:29.173Z,101894.19
2023-05-24T17:15:57.082Z,101898.75
2023-05-24T17:18:29.008Z,101895.69
2023-05-24T17:21:01.366Z,101903.50
2023-05-24T17:23:30.898Z,101900.75
2023-05-24T17:25:58.067Z,101912.06
2023-05-24T17:28:29.007Z,101909.38
2023-05-24T17:31:00.915Z,101904.72
2023-05-24T17:33:29.059Z,101897.16
2023-05-24T17:35:56.871Z,101894.78
2023-05-24T17:38:26.371Z,101895.28
2023-05-24T17:40:58.977Z,101900.50
2023-05-24T17:43:29.306Z,101896.97
2023-05-24T17:46:03.225Z,101892.59
2023-05-24T17:48:31.745Z,101893.84
2023-05-24T17:51:00.844Z,101897.91
2023-05-24T17:53:34.896Z,101899.28
2023-05-24T17:56:02.145Z,101899.72
2023-05-24T17:58:30.887Z,101904.13
2023-05-24T18:00:57.503Z,101900.91
2023-05-24T18:03:24.233Z,101906.16
2023-05-24T18:05:50.836Z,101899.81
2023-05-24T18:08:17.404Z,101909.38
2023-05-24T18:10:43.907Z,101909.41
2023-05-24T18:13:10.634Z,101914.59
2023-05-24T18:15:37.267Z,101905.81
2023-05-24T18:18:04.116Z,101912.63
2023-05-24T18:20:30.791Z,101915.06
2023-05-24T18:22:57.354Z,101917.06
2023-05-24T18:25:23.916Z,101915.06
2023-05-24T18:27:50.545Z,101916.69
2023-05-24T18:30:17.266Z,101920.28
2023-05-24T18:32:55.962Z,101924.75
2023-05-24T18:35:29.388Z,101927.53
2023-05-24T18:37:56.218Z,101917.25
2023-05-24T18:40:23.558Z,101924.47
2023-05-24T18:42:53.040Z,101919.28
2023-05-24T18:45:19.612Z,101922.19
2023-05-24T18:47:46.181Z,101928.22
2023-05-24T18:50:12.872Z,101933.88
2023-05-24T18:52:39.530Z,101927.94
2023-05-24T18:55:10.521Z,101929.13
2023-05-24T18:57:37.787Z,101930.75
2023-05-24T19:00:05.956Z,101933.97
2023-05-24T19:02:38.363Z,101932.81
2023-05-24T19:05:06.300Z,101940.06
2023-05-24T19:07:33.953Z,101947.69
2023-05-24T19:10:00.469Z,101951.69
2023-05-24T19:12:27.052Z,101952.94
2023-05-24T19:14:53.617Z,101955.41
2023-05-24T19:17:20.140Z,101949.53
2023-05-24T19:19:46.628Z,101951.16
2023-05-24T19:22:13.145Z,101956.41
2023-05-24T19:24:39.686Z,101958.50
2023-05-24T19:27:07.033Z,101951.38
2023-05-24T19:29:34.544Z,101962.25
2023-05-24T19:32:01.152Z,101962.31
2023-05-24T19:34:28.719Z,101967.16
2023-05-24T19:36:55.260Z,101966.38
2023-05-24T19:39:21.878Z,101962.84
2023-05-24T19:41:48.385Z,101974.84
2023-05-24T19:44:14.924Z,101962.94
2023-05-24T19:46:41.488Z,101967.72
2023-05-24T19:49:08.057Z,101968.56
2023-05-24T19:51:34.939Z,101974.97
2023-05-24T19:54:01.508Z,101971.03
2023-05-24T19:56:28.140Z,101981.41
2023-05-24T19:58:54.634Z,101987.78
2023-05-24T20:01:21.331Z,101978.66
2023-05-24T20:03:48.669Z,101991.81
2023-05-24T20:06:16.561Z,101984.22
2023-05-24T20:08:43.530Z,101985.81
2023-05-24T20:11:10.426Z,101998.94
2023-05-24T20:13:36.922Z,102002.16
2023-05-24T20:16:03.576Z,102008.09
2023-05-24T20:18:30.186Z,102006.94
2023-05-24T20:20:57.487Z,102014.88
2023-05-24T20:23:27.420Z,102021.25
2023-05-24T20:25:57.247Z,102008.50
2023-05-24T20:28:30.780Z,102014.84
2023-05-24T20:30:58.347Z,102022.81
2023-05-24T20:33:24.984Z,102016.81
2023-05-24T20:35:53.135Z,102022.38
2023-05-24T20:38:19.896Z,102025.16
2023-05-24T20:40:46.551Z,102028.72
2023-05-24T20:43:13.115Z,102033.03
2023-05-24T20:45:39.742Z,102031.44
2023-05-24T20:48:06.665Z,102028.63
2023-05-24T20:50:33.367Z,102031.81
2023-05-24T20:52:59.960Z,102040.56
2023-05-24T20:55:27.080Z,102039.31
2023-05-24T20:57:54.034Z,102043.31
2023-05-24T21:00:20.637Z,102033.31
2023-05-24T21:02:47.384Z,102034.91
2023-05-24T21:05:14.296Z,102040.47
2023-05-24T21:07:41.155Z,102044.88
2023-05-24T21:10:08.558Z,102048.00
2023-05-24T21:12:35.133Z,102052.44
2023-05-24T21:15:01.652Z,102048.81
2023-05-24T21:17:28.259Z,102054.44
2023-05-24T21:19:54.883Z,102059.22
2023-05-24T21:22:21.456Z,102057.63
2023-05-24T21:24:48.006Z,102060.06
2023-05-24T21:27:14.672Z,102064.81
2023-05-24T21:29:41.836Z,102060.06
2023-05-24T21:32:08.433Z,102067.56
2023-05-24T21:34:36.472Z,102068.75
2023-05-24T21:37:04.977Z,102059.16
2023-05-24T21:39:32.286Z,102059.53
2023-05-24T21:41:58.793Z,102067.84
2023-05-24T21:44:25.322Z,102061.03
2023-05-24T21:46:51.913Z,102068.19
2023-05-24T21:49:19.027Z,102062.19
2023-05-24T21:51:45.631Z,102067.75
2023-05-24T21:54:12.248Z,102069.69
2023-05-24T21:56:38.839Z,102067.66
2023-05-24T21:59:05.524Z,102077.97
2023-05-24T22:01:32.139Z,102079.13
2023-05-24T22:03:59.326Z,102075.53
2023-05-24T22:06:26.138Z,102088.19
2023-05-24T22:08:52.660Z,102083.38
2023-05-24T22:11:19.328Z,102082.09
2023-05-24T22:13:46.343Z,102086.44
2023-05-24T22:16:12.922Z,102086.00
2023-05-24T22:18:39.497Z,102093.47
2023-05-24T22:21:06.082Z,102098.59
2023-05-24T22:23:33.356Z,102095.41
2023-05-24T22:26:00.020Z,102094.56
2023-05-24T22:28:26.596Z,102093.78
2023-05-24T22:30:53.134Z,102090.16
2023-05-24T22:33:19.997Z,102095.69
2023-05-24T22:35:46.689Z,102090.09
2023-05-24T22:38:13.269Z,102084.88
2023-05-24T22:40:42.094Z,102090.09
2023-05-24T22:43:08.706Z,102094.09
2023-05-24T22:45:35.388Z,102078.97
2023-05-24T22:48:03.281Z,102093.25
2023-05-24T22:50:29.961Z,102096.78
2023-05-24T22:52:56.725Z,102090.81
2023-05-24T22:55:23.874Z,102103.50
2023-05-24T22:57:50.786Z,102097.88
2023-05-24T23:00:17.787Z,102086.66
2023-05-24T23:02:44.445Z,102103.31
2023-05-24T23:05:11.610Z,102100.06
2023-05-24T23:07:39.771Z,102103.16
2023-05-24T23:10:07.989Z,102102.28
2023-05-24T23:12:35.759Z,102106.28
2023-05-24T23:15:02.291Z,102108.25
2023-05-24T23:17:28.802Z,102114.16
2023-05-24T23:19:55.410Z,102107.38
2023-05-24T23:22:23.882Z,102109.31
2023-05-24T23:24:50.647Z,102100.97
2023-05-24T23:27:17.280Z,102106.91
2023-05-24T23:29:43.871Z,102112.91
2023-05-24T23:32:10.576Z,102109.38
2023-05-24T23:34:37.779Z,102109.38
2023-05-24T23:37:04.734Z,102108.63
2023-05-24T23:39:31.493Z,102105.41
2023-05-24T23:41:58.071Z,102116.22
2023-05-24T23:44:25.620Z,102122.22
2023-05-24T23:46:52.760Z,102120.22
2023-05-24T23:49:20.050Z,102114.28
2023-05-24T23:51:46.686Z,102115.50
2023-05-24T23:54:14.726Z,102112.34
2023-05-24T23:56:42.805Z,102109.94
2023-05-24T23:59:09.518Z,102122.22
